createdAt,value
2019-02-06T00:00:51.991Z,71.67
2019-02-06T00:03:21.564Z,62.90
2019-02-06T00:05:49.358Z,58.77
2019-02-06T00:08:18.476Z,53.67
2019-02-06T00:10:46.148Z,47.23
2019-02-06T00:13:13.644Z,39.50
2019-02-06T00:15:41.171Z,42.90
2019-02-06T00:18:08.989Z,48.70
2019-02-06T00:20:38.474Z,54.30
2019-02-06T00:23:06.159Z,51.90
2019-02-06T00:25:33.759Z,51.33
2019-02-06T00:28:01.331Z,52.73
2019-02-06T00:30:28.828Z,55.00
2019-02-06T00:32:56.652Z,61.50
2019-02-06T00:35:26.080Z,60.10
2019-02-06T00:37:53.725Z,64.27
2019-02-06T00:40:21.563Z,56.47
2019-02-06T00:42:49.319Z,57.73
2019-02-06T00:45:16.852Z,53.77
2019-02-06T00:47:44.335Z,53.13
2019-02-06T00:50:13.071Z,50.27
2019-02-06T00:52:40.539Z,47.90
2019-02-06T00:55:08.066Z,53.07
2019-02-06T00:57:35.571Z,49.70
2019-02-06T01:00:04.935Z,47.87
2019-02-06T01:02:32.416Z,49.87
2019-02-06T01:04:59.994Z,47.73
2019-02-06T01:07:27.431Z,49.67
2019-02-06T01:09:55.312Z,53.57
2019-02-06T01:12:22.905Z,54.50
2019-02-06T01:14:50.435Z,44.97
2019-02-06T01:17:17.896Z,48.43
2019-02-06T01:19:45.647Z,44.33
2019-02-06T01:22:13.856Z,55.87
2019-02-06T01:24:43.017Z,52.20
2019-02-06T01:27:13.057Z,53.17
2019-02-06T01:29:42.049Z,44.50
2019-02-06T01:32:17.355Z,56.43
2019-02-06T01:34:48.389Z,53.43
2019-02-06T01:37:15.867Z,55.77
2019-02-06T01:39:43.640Z,53.53
2019-02-06T01:42:11.323Z,46.80
2019-02-06T01:44:40.144Z,52.27
2019-02-06T01:47:07.678Z,54.70
2019-02-06T01:49:35.216Z,55.93
2019-02-06T01:52:02.712Z,40.73
2019-02-06T01:54:30.467Z,44.70
2019-02-06T01:56:57.931Z,41.97
2019-02-06T01:59:25.728Z,43.20
2019-02-06T02:01:53.199Z,43.40
2019-02-06T02:04:20.723Z,41.40
2019-02-06T02:06:48.211Z,38.10
2019-02-06T02:09:19.583Z,39.63
2019-02-06T02:11:47.323Z,40.27
2019-02-06T02:14:14.948Z,36.87
2019-02-06T02:16:42.788Z,38.90
2019-02-06T02:19:11.503Z,39.50
2019-02-06T02:21:39.091Z,38.47
2019-02-06T02:24:06.568Z,40.17
2019-02-06T04:38:18.659Z,45.30
2019-02-06T04:40:46.384Z,45.00
2019-02-06T04:43:13.883Z,48.90
2019-02-06T04:45:41.600Z,49.27
2019-02-06T04:48:09.075Z,48.93
2019-02-06T04:50:36.509Z,44.63
2019-02-06T04:53:04.387Z,47.43
2019-02-06T04:55:32.440Z,44.93
2019-02-06T04:58:00.188Z,49.43
2019-02-06T05:00:27.770Z,50.60
2019-02-06T05:02:55.306Z,49.90
2019-02-06T05:05:22.809Z,41.50
2019-02-06T05:07:50.298Z,45.77
2019-02-06T05:10:17.737Z,50.07
2019-02-06T05:12:45.508Z,53.20
2019-02-06T05:15:13.299Z,50.23
2019-02-06T05:17:40.825Z,46.53
2019-02-06T05:20:32.392Z,43.23
2019-02-06T05:22:59.908Z,40.97
2019-02-06T05:25:27.539Z,37.00
2019-02-06T05:27:55.027Z,42.53
2019-02-06T05:30:22.751Z,43.60
2019-02-06T05:32:50.229Z,47.13
2019-02-06T05:35:17.700Z,40.10
2019-02-06T05:37:45.205Z,40.80
2019-02-06T05:40:12.749Z,49.60
2019-02-06T05:42:40.696Z,44.60
2019-02-06T05:45:08.208Z,44.07
2019-02-06T05:47:35.710Z,47.27
2019-02-06T05:50:03.625Z,47.37
2019-02-06T05:52:31.077Z,47.30
2019-02-06T05:54:58.541Z,40.20
2019-02-06T05:57:26.041Z,49.33
2019-02-06T05:59:53.521Z,48.77
2019-02-06T06:02:21.208Z,50.07
2019-02-06T06:04:48.699Z,39.37
2019-02-06T06:07:16.226Z,41.73
2019-02-06T06:09:43.685Z,46.57
2019-02-06T06:12:11.467Z,44.17
2019-02-06T06:14:40.526Z,47.53
2019-02-06T06:17:10.855Z,41.63
2019-02-06T06:19:41.981Z,56.90
2019-02-06T06:22:10.249Z,58.73
2019-02-06T06:24:37.811Z,57.40
2019-02-06T06:27:05.273Z,51.60
2019-02-06T06:29:32.812Z,48.73
2019-02-06T06:32:00.429Z,45.00
2019-02-06T06:34:28.226Z,54.90
2019-02-06T06:36:56.942Z,50.00
2019-02-06T06:39:24.573Z,45.60
2019-02-06T06:41:52.172Z,50.73
2019-02-06T06:44:19.632Z,51.70
2019-02-06T06:46:47.116Z,49.40
2019-02-06T06:49:14.616Z,47.47
2019-02-06T06:51:42.069Z,56.83
2019-02-06T06:54:09.551Z,54.47
2019-02-06T06:56:36.987Z,51.70
2019-02-06T06:59:04.555Z,59.00
2019-02-06T07:01:32.036Z,47.00
2019-02-06T07:03:59.525Z,47.20
2019-02-06T07:06:27.016Z,44.13
2019-02-06T07:08:54.524Z,54.30
2019-02-06T07:11:21.972Z,48.70
2019-02-06T07:13:51.551Z,79.17
2019-02-06T07:16:20.984Z,84.70
2019-02-06T07:18:48.549Z,73.80
2019-02-06T07:21:17.787Z,72.03
2019-02-06T07:23:45.278Z,67.27
2019-02-06T07:26:12.818Z,60.30
2019-02-06T07:28:40.324Z,49.73
2019-02-06T07:31:07.789Z,48.13
2019-02-06T07:33:35.624Z,47.10
2019-02-06T07:36:03.147Z,48.47
2019-02-06T07:38:30.571Z,44.47
2019-02-06T07:40:58.064Z,56.60
2019-02-06T07:43:25.524Z,46.03
2019-02-06T07:45:53.047Z,48.07
2019-02-06T07:48:20.759Z,44.70
2019-02-06T07:50:48.298Z,48.30
2019-02-06T07:53:15.744Z,41.67
2019-02-06T07:55:43.227Z,50.83
2019-02-06T07:58:10.884Z,54.47
2019-02-06T08:00:38.689Z,47.03
2019-02-06T08:03:06.269Z,44.53
2019-02-06T08:05:34.098Z,49.10
2019-02-06T08:08:01.935Z,50.80
2019-02-06T08:10:34.001Z,56.10
2019-02-06T08:13:02.001Z,51.30
2019-02-06T08:15:29.755Z,47.80
2019-02-06T08:17:57.870Z,51.07
2019-02-06T08:20:26.168Z,46.57
2019-02-06T08:22:54.036Z,49.80
2019-02-06T08:25:23.485Z,45.90
2019-02-06T08:27:51.198Z,43.00
2019-02-06T08:30:30.547Z,39.80
2019-02-06T08:32:58.660Z,40.30
2019-02-06T08:35:26.536Z,44.27
2019-02-06T08:37:54.358Z,45.27
2019-02-06T08:40:24.064Z,42.13
2019-02-06T08:42:53.441Z,41.57
2019-02-06T08:45:21.128Z,43.70
2019-02-06T08:47:48.884Z,43.03
2019-02-06T08:50:17.420Z,44.67
2019-02-06T08:52:45.909Z,44.43
2019-02-06T08:55:16.406Z,40.50
2019-02-06T08:57:44.264Z,39.27
2019-02-06T09:00:15.864Z,41.53
2019-02-06T09:02:43.647Z,41.30
2019-02-06T09:05:11.155Z,40.67
2019-02-06T09:07:38.806Z,37.47
2019-02-06T09:10:08.829Z,36.97
2019-02-06T09:12:36.396Z,40.40
2019-02-06T09:15:06.793Z,36.40
2019-02-06T09:17:34.914Z,34.70
2019-02-06T09:20:03.652Z,35.73
2019-02-06T09:22:31.636Z,32.77
2019-02-06T09:24:59.845Z,30.87
2019-02-06T09:27:35.926Z,39.57
2019-02-06T09:30:04.437Z,36.57
2019-02-06T09:32:45.326Z,31.63
2019-02-06T09:35:13.636Z,32.13
2019-02-06T09:37:47.352Z,37.23
2019-02-06T09:40:19.030Z,29.63
2019-02-06T09:42:51.903Z,31.30
2019-02-06T09:45:22.342Z,30.50
2019-02-06T09:47:57.708Z,33.07
2019-02-06T09:50:32.944Z,28.00
2019-02-06T09:53:04.283Z,27.80
2019-02-06T09:55:40.672Z,26.63
2019-02-06T09:58:08.703Z,32.77
2019-02-06T10:00:37.715Z,25.40
2019-02-06T10:03:08.423Z,30.67
2019-02-06T10:05:38.579Z,24.73
2019-02-06T10:08:27.107Z,23.53
2019-02-06T10:11:03.926Z,25.83
2019-02-06T10:13:41.428Z,26.57
2019-02-06T10:16:20.947Z,23.13
2019-02-06T10:18:59.618Z,21.80
2019-02-06T10:21:56.271Z,25.67
2019-02-06T10:28:52.762Z,26.10
2019-02-06T10:36:23.199Z,25.20
2019-02-06T10:39:18.135Z,25.97
2019-02-06T10:42:07.027Z,22.80
2019-02-06T10:44:40.839Z,28.07
2019-02-06T10:47:28.253Z,30.13
2019-02-06T10:50:51.774Z,29.23
2019-02-06T10:54:00.023Z,30.23
2019-02-06T11:03:17.867Z,28.90
2019-02-06T11:06:33.061Z,29.93
2019-02-06T11:12:24.637Z,31.47
2019-02-06T11:14:55.215Z,34.50
2019-02-06T11:17:26.407Z,32.00
2019-02-06T11:19:56.632Z,29.80
2019-02-06T11:22:25.285Z,30.27
2019-02-06T11:24:59.783Z,30.57
2019-02-06T11:27:27.710Z,30.00
2019-02-06T11:29:57.374Z,33.13
2019-02-06T11:32:25.481Z,33.00
2019-02-06T11:34:53.633Z,29.47
2019-02-06T11:38:11.557Z,33.97
2019-02-06T11:41:10.752Z,34.70
2019-02-06T11:51:00.405Z,27.87
2019-02-06T12:12:53.355Z,28.73
2019-02-06T12:15:25.534Z,32.97
2019-02-06T12:17:55.924Z,28.73
2019-02-06T12:20:26.874Z,27.50
2019-02-06T12:22:58.779Z,26.70
2019-02-06T12:25:27.137Z,31.10
2019-02-06T12:27:55.124Z,24.30
2019-02-06T12:30:28.690Z,24.67
2019-02-06T12:33:04.793Z,23.83
2019-02-06T12:35:33.026Z,28.27
2019-02-06T12:38:01.219Z,29.00
2019-02-06T12:40:29.070Z,27.40
2019-02-06T12:42:56.609Z,28.33
2019-02-06T12:45:24.490Z,31.40
2019-02-06T12:47:53.462Z,20.80
2019-02-06T12:50:22.528Z,28.80
2019-02-06T12:52:50.319Z,25.17
2019-02-06T12:55:23.750Z,25.57
2019-02-06T12:57:52.872Z,22.27
2019-02-06T13:00:39.071Z,31.37
2019-02-06T13:06:51.151Z,25.90
2019-02-06T13:10:12.767Z,29.97
2019-02-06T13:16:11.212Z,33.27
2019-02-06T13:18:48.245Z,28.20
2019-02-06T13:21:49.849Z,24.27
2019-02-06T13:25:31.465Z,25.43
2019-02-06T13:28:53.477Z,21.93
2019-02-06T13:31:56.012Z,30.53
2019-02-06T13:43:21.316Z,19.93
2019-02-06T13:51:15.635Z,18.43
2019-02-06T13:54:25.405Z,19.77
2019-02-06T14:05:12.324Z,23.47
2019-02-06T14:12:05.406Z,21.90
2019-02-06T14:14:42.325Z,24.40
2019-02-06T14:17:18.242Z,26.63
2019-02-06T14:19:48.672Z,21.90
2019-02-06T14:26:08.376Z,28.00
2019-02-06T14:29:18.006Z,23.77
2019-02-06T14:32:38.301Z,25.40
2019-02-06T14:39:23.012Z,29.67
2019-02-06T14:42:47.679Z,26.97
2019-02-06T14:45:56.294Z,26.20
2019-02-06T14:49:06.846Z,24.53
2019-02-06T14:55:55.846Z,23.77
2019-02-06T15:06:06.523Z,25.57
2019-02-06T15:09:15.743Z,26.60
2019-02-06T15:12:36.848Z,20.60
2019-02-06T15:15:44.532Z,24.13
2019-02-06T15:18:55.569Z,23.70
2019-02-06T15:22:22.805Z,25.37
2019-02-06T15:25:21.923Z,22.80
2019-02-06T15:28:37.363Z,24.10
2019-02-06T15:31:44.873Z,26.30
2019-02-06T15:35:06.183Z,28.13
2019-02-06T15:38:28.408Z,23.17
2019-02-06T15:41:48.375Z,23.57
2019-02-06T15:44:35.152Z,24.47
2019-02-06T15:48:13.066Z,27.23
2019-02-06T15:58:34.232Z,30.23
2019-02-06T16:01:48.302Z,29.27
2019-02-06T16:05:02.022Z,32.07
2019-02-06T16:07:59.729Z,35.30
2019-02-06T16:11:20.020Z,31.47
2019-02-06T16:14:25.906Z,34.97
2019-02-06T16:17:15.071Z,35.77
2019-02-06T16:20:20.370Z,31.67
2019-02-06T16:23:27.979Z,38.60
2019-02-06T16:26:36.977Z,43.40
2019-02-06T16:29:29.352Z,34.17
2019-02-06T16:32:45.605Z,42.80
2019-02-06T16:36:16.170Z,37.67
2019-02-06T16:38:55.308Z,45.23
2019-02-06T16:42:24.025Z,40.13
2019-02-06T16:49:41.181Z,44.07
2019-02-06T16:53:01.571Z,45.13
2019-02-06T16:56:10.807Z,40.63
2019-02-06T16:59:26.785Z,45.40
2019-02-06T17:02:42.542Z,43.13
2019-02-06T17:05:41.799Z,52.63
2019-02-06T17:08:51.794Z,50.90
2019-02-06T17:27:58.598Z,53.83
2019-02-06T17:31:25.650Z,61.80
2019-02-06T17:34:20.793Z,50.53
2019-02-06T17:37:14.758Z,60.93
2019-02-06T17:40:44.094Z,59.13
2019-02-06T17:43:49.879Z,57.40
2019-02-06T17:51:38.156Z,59.57
2019-02-06T17:54:55.003Z,57.17
2019-02-06T18:05:05.427Z,56.30
2019-02-06T18:07:47.358Z,60.23
2019-02-06T18:13:59.276Z,59.70
2019-02-06T18:16:48.356Z,53.87
2019-02-06T18:28:58.125Z,56.20
2019-02-06T18:34:52.370Z,57.33
2019-02-06T18:38:12.527Z,47.57
2019-02-06T18:40:41.952Z,57.50
2019-02-06T18:43:09.460Z,50.33
2019-02-06T18:45:37.136Z,58.97
2019-02-06T18:48:07.953Z,54.43
2019-02-06T18:50:37.990Z,54.47
2019-02-06T18:53:21.027Z,55.27
2019-02-06T18:56:16.490Z,57.17
2019-02-06T18:58:44.475Z,51.87
2019-02-06T19:01:13.437Z,57.47
2019-02-06T19:03:43.541Z,60.37
2019-02-06T19:06:11.632Z,52.50
2019-02-06T19:08:40.125Z,56.87
2019-02-06T19:11:07.801Z,61.80
2019-02-06T19:13:35.263Z,52.27
2019-02-06T19:16:02.859Z,54.93
2019-02-06T19:18:30.460Z,50.73
2019-02-06T19:20:58.047Z,59.70
2019-02-06T19:23:25.671Z,50.90
2019-02-06T19:25:53.463Z,47.33
2019-02-06T19:28:22.099Z,51.30
2019-02-06T19:30:59.720Z,44.40
2019-02-06T19:34:23.254Z,53.40
2019-02-06T19:37:12.848Z,54.90
2019-02-06T19:48:36.354Z,48.40
2019-02-06T20:13:19.146Z,48.00
2019-02-06T20:19:54.669Z,47.63
2019-02-06T20:22:54.514Z,52.83
2019-02-06T20:25:42.486Z,48.90
2019-02-06T20:28:21.544Z,48.37
2019-02-06T20:31:19.320Z,42.97
2019-02-06T20:57:13.665Z,51.40
2019-02-06T21:24:55.226Z,45.07
2019-02-06T21:43:18.923Z,44.70
2019-02-06T21:50:34.090Z,49.63
2019-02-06T21:56:34.241Z,45.23
2019-02-06T21:59:24.249Z,48.37
2019-02-06T22:02:44.873Z,48.93
2019-02-06T22:12:00.756Z,53.37
2019-02-06T22:14:44.695Z,47.33
2019-02-06T22:17:29.566Z,42.17
2019-02-06T22:20:28.184Z,45.50
2019-02-06T22:46:41.445Z,59.97
2019-02-06T22:55:02.027Z,56.17
2019-02-06T22:58:01.732Z,57.60
2019-02-06T23:01:40.776Z,61.07
2019-02-06T23:04:30.523Z,64.43
2019-02-06T23:06:59.504Z,66.00
2019-02-06T23:09:27.941Z,59.67
2019-02-06T23:12:13.484Z,59.37
2019-02-06T23:15:17.855Z,60.87
2019-02-06T23:17:46.275Z,64.50
2019-02-06T23:20:14.995Z,55.20
2019-02-06T23:22:47.049Z,52.67
2019-02-06T23:25:18.653Z,46.43
2019-02-06T23:27:50.992Z,55.00
2019-02-06T23:30:17.411Z,55.70
2019-02-06T23:32:46.638Z,51.33
2019-02-06T23:35:21.052Z,50.10
2019-02-06T23:37:56.970Z,48.00
2019-02-06T23:40:30.858Z,55.63
2019-02-06T23:43:02.483Z,39.37
2019-02-06T23:45:32.397Z,44.87
2019-02-06T23:48:01.088Z,45.80
2019-02-06T23:50:32.321Z,41.33
2019-02-06T23:53:00.722Z,53.93
2019-02-06T23:59:59.449Z,44.37
